Time;durP1;ratioP1;P1;durP2;ratioP2;P2;SDS_P1;SDS_P2;PMS_P1;PMS_P2;Temp;Humidity;BMP_temperature;BMP_pressure;BME280_temperature;BME280_humidity;BME280_pressure;Samples;Min_cycle;Max_cycle;Signal;HPM_P1;HPM_P2
2022/07/24 00:01:43;;;;;;;16.33;6.25;;;;;;;;;;10358502;28;20038;-74
2022/07/24 00:06:44;;;;;;;17.38;6.57;;;;;;;;;;10358014;28;20483;-74
2022/07/24 00:11:44;;;;;;;12.73;6.65;;;;;;;;;;10357987;28;20042;-74
2022/07/24 00:16:44;;;;;;;16.27;6.85;;;;;;;;;;10357872;28;20064;-74
2022/07/24 00:21:44;;;;;;;14.73;6.75;;;;;;;;;;10357566;28;20034;-74
2022/07/24 00:26:45;;;;;;;13.80;7.32;;;;;;;;;;10357454;28;20068;-74
2022/07/24 00:31:45;;;;;;;14.68;7.45;;;;;;;;;;10357389;28;20034;-75
2022/07/24 00:36:45;;;;;;;15.05;7.03;;;;;;;;;;10356913;28;20377;-74
2022/07/24 00:41:46;;;;;;;9.83;5.67;;;;;;;;;;10356672;28;20420;-74
2022/07/24 00:46:46;;;;;;;11.20;6.35;;;;;;;;;;10374311;28;20419;-75
2022/07/24 00:51:49;;;;;;;15.00;7.70;;;;;;;;;;10374757;28;20557;-74
2022/07/24 00:56:51;;;;;;;11.40;7.20;;;;;;;;;;10356072;28;20045;-76
2022/07/24 01:01:52;;;;;;;15.52;6.55;;;;;;;;;;10356069;28;20073;-74
2022/07/24 01:06:52;;;;;;;16.03;6.47;;;;;;;;;;10355765;28;20460;-74
2022/07/24 01:11:52;;;;;;;14.93;6.75;;;;;;;;;;10355586;28;20037;-75
2022/07/24 01:16:53;;;;;;;16.70;7.40;;;;;;;;;;10373256;28;20064;-74
2022/07/24 01:21:53;;;;;;;16.25;7.35;;;;;;;;;;10355374;28;20092;-74
2022/07/24 01:26:53;;;;;;;16.63;6.95;;;;;;;;;;10355080;28;20034;-74
2022/07/24 01:31:54;;;;;;;10.25;6.30;;;;;;;;;;10355110;28;20038;-76
2022/07/24 01:36:54;;;;;;;20.20;7.10;;;;;;;;;;10354791;28;20038;-75
2022/07/24 01:41:55;;;;;;;19.45;7.32;;;;;;;;;;10354537;28;20034;-74
2022/07/24 01:46:55;;;;;;;15.27;7.72;;;;;;;;;;10354311;28;20559;-74
2022/07/24 01:51:55;;;;;;;15.85;7.03;;;;;;;;;;10353776;28;20045;-74
2022/07/24 01:56:55;;;;;;;19.65;7.60;;;;;;;;;;10354005;28;20034;-74
2022/07/24 02:01:55;;;;;;;22.58;8.82;;;;;;;;;;10337536;28;20145;-74
2022/07/24 02:06:56;;;;;;;18.90;6.82;;;;;;;;;;10371567;28;20030;-74
2022/07/24 02:11:56;;;;;;;19.15;7.72;;;;;;;;;;10353671;28;20038;-74
2022/07/24 02:16:59;;;;;;;11.73;7.50;;;;;;;;;;10353473;28;20030;-74
2022/07/24 02:21:59;;;;;;;17.73;8.15;;;;;;;;;;10353578;28;20065;-75
2022/07/24 02:27:00;;;;;;;16.63;8.32;;;;;;;;;;10353158;28;20065;-74
2022/07/24 02:32:00;;;;;;;16.50;8.53;;;;;;;;;;10353095;28;20029;-74
2022/07/24 02:37:00;;;;;;;15.52;8.00;;;;;;;;;;10352948;28;20073;-74
2022/07/24 02:42:01;;;;;;;16.83;7.90;;;;;;;;;;10353012;28;20038;-74
2022/07/24 02:47:01;;;;;;;20.77;8.13;;;;;;;;;;10352629;28;20463;-74
2022/07/24 02:52:02;;;;;;;13.43;8.25;;;;;;;;;;10352765;28;20595;-75
2022/07/24 02:57:03;;;;;;;15.30;7.03;;;;;;;;;;10370243;28;20068;-74
2022/07/24 03:02:03;;;;;;;20.30;6.88;;;;;;;;;;10354151;28;20554;-74
2022/07/24 03:07:03;;;;;;;9.75;6.32;;;;;;;;;;10378007;28;20050;-75
2022/07/24 03:12:03;;;;;;;14.45;6.63;;;;;;;;;;10360303;28;20041;-74
2022/07/24 03:17:04;;;;;;;11.30;6.87;;;;;;;;;;10360038;28;20121;-74
2022/07/24 03:22:04;;;;;;;12.50;7.47;;;;;;;;;;10360165;28;20351;-75
2022/07/24 03:27:04;;;;;;;20.10;8.15;;;;;;;;;;10359911;28;20484;-74
2022/07/24 03:32:05;;;;;;;17.27;7.40;;;;;;;;;;10359468;28;20026;-74
2022/07/24 03:37:05;;;;;;;16.77;7.75;;;;;;;;;;10377489;28;20052;-74
2022/07/24 03:42:05;;;;;;;19.30;6.78;;;;;;;;;;10359069;28;20093;-74
2022/07/24 03:47:06;;;;;;;14.68;7.82;;;;;;;;;;10358730;28;20038;-74
2022/07/24 03:52:06;;;;;;;14.15;7.53;;;;;;;;;;10358678;28;20088;-74
2022/07/24 03:57:06;;;;;;;16.73;7.32;;;;;;;;;;10358667;28;20037;-75
2022/07/24 04:02:06;;;;;;;15.98;7.20;;;;;;;;;;10358528;28;20464;-74
2022/07/24 04:07:07;;;;;;;23.20;7.93;;;;;;;;;;10375749;28;20510;-74
2022/07/24 04:12:07;;;;;;;17.90;8.32;;;;;;;;;;10341379;28;20557;-74
2022/07/24 04:17:07;;;;;;;12.63;7.20;;;;;;;;;;10357784;28;20038;-75
2022/07/24 04:22:08;;;;;;;14.03;8.07;;;;;;;;;;10357762;28;20044;-74
2022/07/24 04:27:08;;;;;;;14.82;7.15;;;;;;;;;;10357928;28;20127;-74
2022/07/24 04:32:08;;;;;;;15.27;6.97;;;;;;;;;;10357237;28;20036;-75
2022/07/24 04:37:09;;;;;;;15.98;7.95;;;;;;;;;;10357027;28;20069;-75
2022/07/24 04:42:09;;;;;;;19.52;7.75;;;;;;;;;;10356670;28;20026;-74
2022/07/24 04:47:09;;;;;;;17.00;8.35;;;;;;;;;;10356483;28;20040;-74
2022/07/24 04:52:09;;;;;;;21.85;8.48;;;;;;;;;;10356938;28;20137;-75
2022/07/24 04:57:10;;;;;;;20.15;8.25;;;;;;;;;;10356106;28;20069;-75
2022/07/24 05:02:10;;;;;;;19.77;8.45;;;;;;;;;;10356062;28;20057;-74
2022/07/24 05:07:10;;;;;;;19.58;8.15;;;;;;;;;;10355675;28;20099;-75
2022/07/24 05:12:10;;;;;;;21.15;7.57;;;;;;;;;;10371861;28;20043;-74
2022/07/24 05:17:11;;;;;;;15.13;7.28;;;;;;;;;;10355692;28;20034;-75
2022/07/24 05:22:11;;;;;;;18.35;7.75;;;;;;;;;;10355162;28;20088;-74
2022/07/24 05:27:11;;;;;;;17.63;8.45;;;;;;;;;;10354209;28;20037;-75
2022/07/24 05:32:11;;;;;;;11.13;7.05;;;;;;;;;;10355186;28;20088;-75
2022/07/24 05:37:12;;;;;;;21.37;8.13;;;;;;;;;;10354854;28;20033;-75
2022/07/24 05:42:12;;;;;;;20.17;7.88;;;;;;;;;;10372111;28;20288;-75
2022/07/24 05:47:12;;;;;;;11.98;7.03;;;;;;;;;;10354369;28;20068;-75
2022/07/24 05:52:12;;;;;;;19.95;8.02;;;;;;;;;;10371768;28;20029;-75
2022/07/24 05:57:13;;;;;;;14.75;8.18;;;;;;;;;;10371940;28;20064;-74
2022/07/24 06:02:13;;;;;;;16.60;7.13;;;;;;;;;;10371646;28;20053;-74
2022/07/24 06:07:13;;;;;;;18.90;6.88;;;;;;;;;;10371197;28;20045;-74
2022/07/24 06:12:15;;;;;;;15.38;6.63;;;;;;;;;;10353362;28;20582;-73
2022/07/24 06:17:15;;;;;;;15.93;6.80;;;;;;;;;;10353207;28;20026;-73
2022/07/24 06:22:15;;;;;;;16.45;6.78;;;;;;;;;;10352875;28;20034;-73
2022/07/24 06:27:15;;;;;;;16.40;7.93;;;;;;;;;;10353218;28;20240;-74
2022/07/24 06:32:16;;;;;;;11.70;6.65;;;;;;;;;;10352910;28;20030;-75
2022/07/24 06:37:16;;;;;;;26.50;7.47;;;;;;;;;;10352571;28;20507;-74
2022/07/24 06:42:16;;;;;;;20.77;6.67;;;;;;;;;;10370291;28;20128;-74
2022/07/24 06:47:16;;;;;;;14.85;6.35;;;;;;;;;;10352535;28;20284;-75
2022/07/24 06:52:17;;;;;;;12.77;5.85;;;;;;;;;;10370126;28;20030;-74
2022/07/24 06:57:18;;;;;;;12.90;5.80;;;;;;;;;;10352677;28;20115;-74
2022/07/24 07:02:18;;;;;;;10.73;6.00;;;;;;;;;;10352393;28;20057;-74
2022/07/24 07:07:19;;;;;;;13.55;5.97;;;;;;;;;;10368434;28;20042;-74
2022/07/24 07:12:19;;;;;;;18.70;5.95;;;;;;;;;;10336233;28;20030;-74
2022/07/24 07:17:19;;;;;;;16.85;5.80;;;;;;;;;;10352296;28;20061;-74
2022/07/24 07:22:19;;;;;;;16.85;5.38;;;;;;;;;;10351902;28;20124;-75
2022/07/24 07:27:20;;;;;;;11.32;6.43;;;;;;;;;;10369740;28;20037;-74
2022/07/24 07:32:20;;;;;;;18.58;6.20;;;;;;;;;;10352404;28;20415;-75
2022/07/24 07:37:20;;;;;;;13.60;5.70;;;;;;;;;;10351833;28;20503;-74
2022/07/24 07:42:20;;;;;;;19.27;5.95;;;;;;;;;;10351383;28;20026;-74
2022/07/24 07:47:21;;;;;;;14.60;5.38;;;;;;;;;;10351706;28;20033;-75
2022/07/24 07:52:21;;;;;;;11.15;5.97;;;;;;;;;;10359257;28;20026;-75
2022/07/24 07:57:21;;;;;;;13.93;6.10;;;;;;;;;;10358690;28;20032;-74
2022/07/24 08:02:21;;;;;;;12.70;5.50;;;;;;;;;;10358244;28;20046;-74
2022/07/24 08:07:22;;;;;;;18.42;6.18;;;;;;;;;;10357983;28;20496;-75
2022/07/24 08:12:22;;;;;;;10.50;5.20;;;;;;;;;;10358168;28;20125;-74
2022/07/24 08:17:22;;;;;;;10.40;4.50;;;;;;;;;;10357641;28;20566;-76
2022/07/24 08:22:22;;;;;;;14.48;5.15;;;;;;;;;;10357531;28;20052;-74
2022/07/24 08:27:23;;;;;;;12.95;5.35;;;;;;;;;;10357262;28;20496;-74
2022/07/24 08:32:23;;;;;;;19.38;5.82;;;;;;;;;;10374794;28;20069;-74
2022/07/24 08:37:23;;;;;;;13.63;5.35;;;;;;;;;;10356831;28;20133;-74
2022/07/24 08:42:23;;;;;;;17.23;6.88;;;;;;;;;;10374163;28;20041;-74
2022/07/24 08:47:25;;;;;;;11.80;5.70;;;;;;;;;;10385163;28;20040;-74
2022/07/24 08:52:26;;;;;;;19.88;6.47;;;;;;;;;;10373926;28;20034;-74
2022/07/24 08:57:26;;;;;;;14.50;6.00;;;;;;;;;;10356681;28;20049;-74
2022/07/24 09:02:27;;;;;;;12.65;6.07;;;;;;;;;;10354992;28;20459;-74
2022/07/24 09:07:29;;;;;;;16.95;6.97;;;;;;;;;;10355790;28;20536;-74
2022/07/24 09:12:38;;;;;;;15.63;6.57;;;;;;;;;;10355531;28;20479;-75
2022/07/24 09:17:54;;;;;;;16.67;7.28;;;;;;;;;;10373080;28;20038;-74
2022/07/24 09:22:58;;;;;;;15.10;6.43;;;;;;;;;;10339498;28;20388;-74
2022/07/24 09:28:00;;;;;;;22.40;6.10;;;;;;;;;;10355052;28;20118;-74
2022/07/24 09:33:02;;;;;;;12.18;5.47;;;;;;;;;;10372525;28;20171;-74
2022/07/24 09:38:03;;;;;;;9.68;5.18;;;;;;;;;;10354886;28;20084;-74
2022/07/24 09:43:18;;;;;;;11.55;5.32;;;;;;;;;;10354333;28;20472;-74
2022/07/24 09:48:22;;;;;;;16.03;5.87;;;;;;;;;;10354240;28;20030;-74
2022/07/24 09:53:24;;;;;;;14.05;5.05;;;;;;;;;;10354212;28;20094;-75
2022/07/24 09:58:25;;;;;;;13.65;5.47;;;;;;;;;;10371772;28;20034;-74
2022/07/24 10:03:27;;;;;;;15.45;5.97;;;;;;;;;;10353707;28;20069;-74
2022/07/24 10:08:27;;;;;;;14.48;5.05;;;;;;;;;;10353758;28;20030;-74
2022/07/24 10:13:28;;;;;;;13.77;5.07;;;;;;;;;;10353118;28;20531;-74
2022/07/24 10:18:48;;;;;;;7.03;4.57;;;;;;;;;;10353241;28;20416;-74
2022/07/24 10:23:51;;;;;;;11.07;5.72;;;;;;;;;;10370386;28;20424;-74
2022/07/24 10:28:54;;;;;;;10.63;4.32;;;;;;;;;;10352851;28;20052;-74
2022/07/24 10:33:56;;;;;;;9.90;4.30;;;;;;;;;;10352863;28;20030;-74
2022/07/24 10:39:00;;;;;;;10.10;4.53;;;;;;;;;;10352821;28;20488;-74
2022/07/24 10:44:17;;;;;;;11.03;4.60;;;;;;;;;;10353248;28;20046;-74
2022/07/24 10:49:35;;;;;;;10.68;3.63;;;;;;;;;;10352351;28;20033;-74
2022/07/24 10:54:36;;;;;;;9.15;3.70;;;;;;;;;;10370213;28;20443;-74
2022/07/24 10:59:37;;;;;;;10.73;3.50;;;;;;;;;;10352084;28;20117;-74
2022/07/24 11:04:38;;;;;;;6.10;3.60;;;;;;;;;;10352154;28;20034;-73
2022/07/24 11:09:53;;;;;;;7.63;3.22;;;;;;;;;;10369683;28;20022;-74
2022/07/24 11:15:53;;;;;;;7.47;3.88;;;;;;;;;;10369607;28;20120;-73
2022/07/24 11:20:18;;;;;;;12.25;3.95;;;;;;;;;;10369425;28;20045;-73
2022/07/24 11:25:23;;;;;;;11.13;4.30;;;;;;;;;;10357157;28;20092;-76
2022/07/24 11:30:24;;;;;;;12.73;4.35;;;;;;;;;;10377108;28;20095;-76
2022/07/24 11:35:35;;;;;;;8.20;4.53;;;;;;;;;;10359290;28;20083;-75
2022/07/24 11:40:35;;;;;;;16.42;5.40;;;;;;;;;;10359115;28;20030;-75
2022/07/24 11:45:36;;;;;;;8.80;4.75;;;;;;;;;;10358940;28;20056;-75
2022/07/24 11:50:36;;;;;;;9.77;4.53;;;;;;;;;;10376187;28;20060;-75
2022/07/24 11:55:37;;;;;;;11.60;4.78;;;;;;;;;;10358355;28;20360;-75
2022/07/24 12:00:37;;;;;;;9.68;4.78;;;;;;;;;;10375795;28;20054;-74
2022/07/24 12:05:38;;;;;;;12.23;4.60;;;;;;;;;;10358118;28;20037;-74
2022/07/24 12:10:38;;;;;;;12.85;5.82;;;;;;;;;;10358125;28;20057;-75
2022/07/24 12:15:39;;;;;;;11.70;5.78;;;;;;;;;;10357650;28;20070;-74
2022/07/24 12:20:40;;;;;;;9.20;5.83;;;;;;;;;;10375125;28;20036;-74
2022/07/24 12:25:40;;;;;;;11.25;5.75;;;;;;;;;;10357363;28;20411;-75
2022/07/24 12:30:54;;;;;;;14.88;5.78;;;;;;;;;;10357322;28;20114;-74
2022/07/24 12:36:01;;;;;;;9.20;5.45;;;;;;;;;;10374112;28;20030;-75
2022/07/24 12:41:02;;;;;;;10.57;5.80;;;;;;;;;;10356828;28;20029;-75
2022/07/24 12:46:10;;;;;;;12.60;5.60;;;;;;;;;;10356671;28;20029;-74
2022/07/24 12:51:12;;;;;;;13.13;6.03;;;;;;;;;;10340292;28;20049;-74
2022/07/24 12:56:16;;;;;;;13.57;6.63;;;;;;;;;;10356193;28;20451;-75
2022/07/24 13:01:16;;;;;;;11.40;5.95;;;;;;;;;;10356296;28;20046;-76
2022/07/24 13:06:17;;;;;;;12.55;5.78;;;;;;;;;;10356112;28;20026;-75
2022/07/24 13:11:17;;;;;;;12.75;6.03;;;;;;;;;;10373348;28;20033;-75
2022/07/24 13:16:19;;;;;;;15.77;6.10;;;;;;;;;;10355430;28;20072;-75
2022/07/24 13:21:19;;;;;;;9.88;5.95;;;;;;;;;;10355318;28;20030;-74
2022/07/24 13:26:20;;;;;;;7.93;5.75;;;;;;;;;;10355145;28;20116;-75
2022/07/24 13:31:21;;;;;;;10.88;6.15;;;;;;;;;;10354857;28;20058;-74
2022/07/24 13:36:21;;;;;;;9.97;5.17;;;;;;;;;;10372180;28;20041;-75
2022/07/24 13:41:22;;;;;;;8.77;4.63;;;;;;;;;;10354516;28;20049;-76
2022/07/24 13:46:22;;;;;;;11.60;5.05;;;;;;;;;;10371140;28;20029;-75
2022/07/24 13:51:23;;;;;;;11.20;5.80;;;;;;;;;;10353830;28;20585;-75
2022/07/24 13:56:24;;;;;;;7.60;4.60;;;;;;;;;;10371351;28;20471;-75
2022/07/24 14:01:24;;;;;;;10.98;6.40;;;;;;;;;;10353519;28;20066;-75
2022/07/24 14:06:25;;;;;;;6.38;5.78;;;;;;;;;;10353605;28;20511;-75
2022/07/24 14:11:25;;;;;;;10.40;5.75;;;;;;;;;;10353437;28;20466;-75
2022/07/24 14:16:26;;;;;;;11.73;6.72;;;;;;;;;;10353012;28;20037;-74
2022/07/24 14:21:26;;;;;;;10.43;6.85;;;;;;;;;;10352869;28;20128;-76
2022/07/24 14:26:26;;;;;;;19.17;5.80;;;;;;;;;;10352791;28;20088;-74
2022/07/24 14:31:27;;;;;;;10.63;5.60;;;;;;;;;;10352597;28;20176;-74
2022/07/24 14:36:27;;;;;;;11.05;6.22;;;;;;;;;;10352452;28;20135;-74
2022/07/24 14:41:27;;;;;;;19.08;6.28;;;;;;;;;;10369873;28;20052;-73
2022/07/24 14:46:27;;;;;;;15.93;6.82;;;;;;;;;;10352321;28;20041;-74
2022/07/24 14:51:28;;;;;;;10.85;6.18;;;;;;;;;;10352205;28;20455;-74
2022/07/24 14:56:28;;;;;;;12.07;6.38;;;;;;;;;;10352680;28;20037;-73
2022/07/24 15:01:28;;;;;;;12.55;6.78;;;;;;;;;;10377800;28;20141;-75
2022/07/24 15:06:28;;;;;;;11.15;6.32;;;;;;;;;;10360075;28;20038;-74
2022/07/24 15:11:29;;;;;;;9.17;6.03;;;;;;;;;;10359991;28;20034;-74
2022/07/24 15:16:29;;;;;;;13.25;7.25;;;;;;;;;;10359677;28;20464;-74
2022/07/24 15:21:29;;;;;;;10.93;6.65;;;;;;;;;;10359681;28;20030;-74
2022/07/24 15:26:30;;;;;;;7.77;6.50;;;;;;;;;;10359847;28;20062;-74
2022/07/24 15:31:30;;;;;;;11.80;7.50;;;;;;;;;;10359410;28;20068;-74
2022/07/24 15:36:31;;;;;;;12.10;7.00;;;;;;;;;;10359067;28;20069;-76
2022/07/24 15:41:31;;;;;;;11.30;7.57;;;;;;;;;;10376444;28;20032;-76
2022/07/24 15:46:31;;;;;;;9.23;7.38;;;;;;;;;;10358348;28;20088;-76
2022/07/24 15:51:32;;;;;;;12.40;7.43;;;;;;;;;;10374723;28;20046;-74
2022/07/24 15:56:33;;;;;;;10.07;6.82;;;;;;;;;;10359060;28;20116;-75
2022/07/24 16:01:33;;;;;;;15.30;7.90;;;;;;;;;;10358037;28;20141;-75
2022/07/24 16:06:33;;;;;;;11.65;7.53;;;;;;;;;;10357932;28;20038;-75
2022/07/24 16:11:34;;;;;;;9.88;7.60;;;;;;;;;;10357004;28;20136;-76
2022/07/24 16:16:34;;;;;;;14.55;8.05;;;;;;;;;;10357734;28;20041;-75
2022/07/24 16:21:34;;;;;;;13.07;8.07;;;;;;;;;;10358811;28;20087;-74
2022/07/24 16:26:34;;;;;;;11.30;8.50;;;;;;;;;;10357494;28;20044;-74
2022/07/24 16:31:35;;;;;;;12.43;7.35;;;;;;;;;;10357289;28;20389;-75
2022/07/24 16:36:35;;;;;;;17.07;7.87;;;;;;;;;;10356778;28;20028;-74
2022/07/24 16:41:35;;;;;;;15.85;11.30;;;;;;;;;;10374236;28;20467;-74
2022/07/24 16:46:36;;;;;;;12.03;8.33;;;;;;;;;;10356422;28;20173;-75
2022/07/24 16:51:36;;;;;;;12.52;8.25;;;;;;;;;;10356511;28;20052;-75
2022/07/24 16:56:36;;;;;;;11.68;8.23;;;;;;;;;;10376148;28;20447;-74
2022/07/24 17:01:36;;;;;;;14.52;9.57;;;;;;;;;;10339683;28;20077;-75
2022/07/24 17:06:37;;;;;;;11.37;8.43;;;;;;;;;;10355886;28;20045;-75
2022/07/24 17:11:37;;;;;;;10.00;8.20;;;;;;;;;;10373388;28;20041;-73
2022/07/24 17:16:37;;;;;;;15.02;8.50;;;;;;;;;;10355280;28;20129;-74
2022/07/24 17:21:37;;;;;;;14.38;8.73;;;;;;;;;;10354737;28;20022;-74
2022/07/24 17:26:38;;;;;;;11.80;8.73;;;;;;;;;;10355322;28;20025;-73
2022/07/24 17:31:38;;;;;;;11.70;9.13;;;;;;;;;;10338873;28;20054;-74
2022/07/24 17:36:38;;;;;;;16.10;8.98;;;;;;;;;;10372057;28;20077;-76
2022/07/24 17:41:38;;;;;;;18.25;10.07;;;;;;;;;;10354768;28;20025;-75
2022/07/24 17:46:47;;;;;;;13.77;9.23;;;;;;;;;;10573747;27;20379;-74
2022/07/24 17:51:48;;;;;;;18.13;9.73;;;;;;;;;;10570722;28;20409;-74
2022/07/24 17:56:49;;;;;;;13.27;8.68;;;;;;;;;;10570400;28;20047;-73
2022/07/24 18:01:49;;;;;;;12.38;9.43;;;;;;;;;;10570399;28;20020;-74
2022/07/24 18:06:49;;;;;;;14.52;9.45;;;;;;;;;;10570390;28;20102;-74
2022/07/24 18:11:50;;;;;;;10.37;9.10;;;;;;;;;;10571476;28;20020;-74
2022/07/24 18:16:50;;;;;;;13.82;8.93;;;;;;;;;;10570030;28;20016;-75
2022/07/24 18:21:50;;;;;;;13.43;9.88;;;;;;;;;;10569887;28;20034;-74
2022/07/24 18:26:52;;;;;;;14.73;9.90;;;;;;;;;;10569756;28;20106;-74
2022/07/24 18:31:52;;;;;;;23.80;10.02;;;;;;;;;;10569715;28;20027;-74
2022/07/24 18:36:52;;;;;;;18.77;9.65;;;;;;;;;;10570681;28;20500;-74
2022/07/24 18:41:52;;;;;;;10.83;8.37;;;;;;;;;;10568624;28;20024;-74
2022/07/24 18:46:53;;;;;;;14.32;8.63;;;;;;;;;;10569765;28;20065;-75
2022/07/24 18:51:53;;;;;;;18.95;9.93;;;;;;;;;;10568772;28;20031;-74
2022/07/24 18:56:53;;;;;;;19.77;10.27;;;;;;;;;;10547547;28;20027;-74
2022/07/24 19:01:54;;;;;;;11.60;8.57;;;;;;;;;;10540018;28;20576;-74
2022/07/24 19:06:54;;;;;;;13.20;8.97;;;;;;;;;;10539999;28;20020;-74
2022/07/24 19:11:54;;;;;;;10.95;8.95;;;;;;;;;;10540046;28;20019;-75
2022/07/24 19:16:55;;;;;;;15.10;8.95;;;;;;;;;;10541429;28;20497;-74
2022/07/24 19:21:55;;;;;;;13.98;9.43;;;;;;;;;;10539275;28;20556;-75
2022/07/24 19:26:55;;;;;;;16.37;9.10;;;;;;;;;;10539335;28;20019;-75
2022/07/24 19:31:59;;;;;;;13.32;8.52;;;;;;;;;;10539135;28;20012;-74
2022/07/24 19:37:00;;;;;;;12.70;8.90;;;;;;;;;;10538589;28;20407;-75
2022/07/24 19:42:01;;;;;;;10.73;8.17;;;;;;;;;;10537862;28;20035;-76
2022/07/24 19:47:01;;;;;;;11.13;8.32;;;;;;;;;;10539588;28;20399;-76
2022/07/24 19:52:01;;;;;;;12.60;8.73;;;;;;;;;;10538036;28;20375;-75
2022/07/24 19:57:01;;;;;;;20.63;8.57;;;;;;;;;;10539053;28;20077;-76
2022/07/24 20:02:02;;;;;;;10.77;8.00;;;;;;;;;;10538995;28;20020;-76
2022/07/24 20:07:02;;;;;;;12.60;9.18;;;;;;;;;;10536838;28;20110;-75
2022/07/24 20:12:02;;;;;;;11.65;7.95;;;;;;;;;;10538730;28;20012;-75
2022/07/24 20:17:03;;;;;;;13.73;8.50;;;;;;;;;;10537450;28;20103;-75
2022/07/24 20:22:04;;;;;;;11.60;9.17;;;;;;;;;;10537031;28;20798;-74
2022/07/24 20:27:05;;;;;;;10.63;7.55;;;;;;;;;;10536868;28;20469;-74
2022/07/24 20:32:05;;;;;;;12.80;8.40;;;;;;;;;;10536981;28;20012;-74
2022/07/24 20:37:05;;;;;;;10.07;7.93;;;;;;;;;;10538019;28;20595;-75
2022/07/24 20:42:06;;;;;;;10.93;8.57;;;;;;;;;;10536080;28;20060;-75
2022/07/24 20:47:06;;;;;;;16.05;7.82;;;;;;;;;;10536299;28;20464;-75
2022/07/24 20:52:07;;;;;;;10.80;8.30;;;;;;;;;;10536140;28;20020;-74
2022/07/24 20:57:07;;;;;;;10.00;7.25;;;;;;;;;;10536178;28;20044;-75
2022/07/24 21:02:08;;;;;;;11.18;8.13;;;;;;;;;;10535620;28;20023;-74
2022/07/24 21:07:09;;;;;;;11.40;7.60;;;;;;;;;;10535478;28;20008;-76
2022/07/24 21:12:09;;;;;;;14.57;9.55;;;;;;;;;;10535672;28;20023;-75
2022/07/24 21:17:09;;;;;;;12.85;8.75;;;;;;;;;;10534992;28;20024;-76
2022/07/24 21:22:10;;;;;;;11.05;8.70;;;;;;;;;;10536295;28;20032;-74
2022/07/24 21:27:10;;;;;;;19.48;10.68;;;;;;;;;;10534828;28;20012;-76
2022/07/24 21:32:10;;;;;;;18.55;10.43;;;;;;;;;;10534799;28;20467;-74
2022/07/24 21:37:11;;;;;;;14.98;9.73;;;;;;;;;;10535951;28;20024;-74
2022/07/24 21:42:11;;;;;;;14.30;10.50;;;;;;;;;;10534233;28;20044;-74
2022/07/24 21:47:11;;;;;;;18.80;10.20;;;;;;;;;;10534552;28;20012;-74
2022/07/24 21:52:11;;;;;;;15.65;9.55;;;;;;;;;;10534443;28;20047;-74
2022/07/24 21:57:12;;;;;;;12.93;10.02;;;;;;;;;;10534236;28;20011;-74
2022/07/24 22:02:12;;;;;;;13.20;9.60;;;;;;;;;;10534329;28;20111;-75
2022/07/24 22:07:12;;;;;;;13.47;9.00;;;;;;;;;;10535627;28;20047;-74
2022/07/24 22:12:12;;;;;;;13.13;8.80;;;;;;;;;;10534135;28;20493;-74
2022/07/24 22:17:13;;;;;;;12.55;9.13;;;;;;;;;;10534165;28;20577;-76
2022/07/24 22:22:13;;;;;;;14.00;8.93;;;;;;;;;;10533919;28;20711;-74
2022/07/24 22:27:13;;;;;;;11.00;8.35;;;;;;;;;;10533821;28;20020;-74
2022/07/24 22:32:14;;;;;;;17.25;9.48;;;;;;;;;;10539644;28;20030;-74
2022/07/24 22:37:16;;;;;;;12.68;7.97;;;;;;;;;;10541666;28;20027;-75
2022/07/24 22:42:16;;;;;;;15.70;8.43;;;;;;;;;;10541127;28;20496;-75
2022/07/24 22:47:17;;;;;;;14.97;10.03;;;;;;;;;;10541356;28;20103;-75
2022/07/24 22:52:18;;;;;;;15.77;9.80;;;;;;;;;;10542483;28;20032;-74
2022/07/24 22:57:18;;;;;;;14.75;9.63;;;;;;;;;;10541273;28;20039;-74
2022/07/24 23:02:18;;;;;;;14.00;10.43;;;;;;;;;;10540566;28;20464;-75
2022/07/24 23:07:19;;;;;;;14.63;10.77;;;;;;;;;;10540447;28;20417;-74
2022/07/24 23:12:19;;;;;;;14.50;10.77;;;;;;;;;;10540174;28;20110;-74
2022/07/24 23:17:20;;;;;;;14.82;10.15;;;;;;;;;;10539852;28;20115;-74
2022/07/24 23:22:20;;;;;;;15.30;11.65;;;;;;;;;;10539829;28;20020;-74
2022/07/24 23:27:20;;;;;;;15.98;12.27;;;;;;;;;;10522738;28;20371;-75
2022/07/24 23:32:21;;;;;;;13.20;9.97;;;;;;;;;;10539299;28;20024;-74
2022/07/24 23:37:21;;;;;;;17.30;11.70;;;;;;;;;;10539508;28;20024;-75
2022/07/24 23:42:21;;;;;;;15.45;11.52;;;;;;;;;;10538759;28;20047;-74
2022/07/24 23:47:22;;;;;;;17.37;11.23;;;;;;;;;;10538932;28;20028;-74
2022/07/24 23:52:22;;;;;;;18.33;12.52;;;;;;;;;;10538570;28;20027;-75
2022/07/24 23:57:22;;;;;;;20.80;13.48;;;;;;;;;;10539475;28;20114;-74
